createdAt,value
2018-04-23T00:02:20.861Z,98996.56
2018-04-23T00:04:49.635Z,98992.76
2018-04-23T00:07:18.249Z,98994.15
2018-04-23T00:09:47.086Z,98994.15
2018-04-23T00:12:16.248Z,99005.28
2018-04-23T00:14:44.804Z,99006.76
2018-04-23T00:17:13.582Z,99007.27
2018-04-23T00:19:42.376Z,99015.45
2018-04-23T00:22:11.175Z,99015.45
2018-04-23T00:24:40.063Z,99014.20
2018-04-23T00:27:08.781Z,99017.87
2018-04-23T00:29:37.768Z,99019.83
2018-04-23T00:32:06.487Z,99023.42
2018-04-23T00:34:35.225Z,99021.67
2018-04-23T00:37:04.255Z,99031.52
2018-04-23T00:42:28.672Z,99038.38
2018-04-23T00:44:57.398Z,99042.88
2018-04-23T00:47:25.825Z,99046.98
2018-04-23T00:49:54.614Z,99050.16
2018-04-23T00:52:23.552Z,99050.23
2018-04-23T00:54:52.037Z,99055.16
2018-04-23T00:57:20.860Z,99058.76
2018-04-23T00:59:49.613Z,99060.70
2018-04-23T01:02:18.543Z,99062.13
2018-04-23T01:04:47.298Z,99066.31
2018-04-23T01:07:16.169Z,99072.73
2018-04-23T01:09:44.830Z,99066.06
2018-04-23T01:12:13.741Z,99073.16
2018-04-23T01:14:42.421Z,99075.08
2018-04-23T01:17:11.085Z,99083.59
2018-04-23T01:19:39.855Z,99083.05
2018-04-23T01:22:08.690Z,99083.96
2018-04-23T01:24:37.264Z,99088.89
2018-04-23T01:27:06.354Z,99090.72
2018-04-23T01:29:35.128Z,99092.14
2018-04-23T01:32:03.794Z,99093.06
2018-04-23T01:34:32.707Z,99098.41
2018-04-23T01:37:01.597Z,99102.50
2018-04-23T01:39:30.415Z,99099.91
2018-04-23T01:41:59.269Z,99108.01
2018-04-23T01:44:28.277Z,99112.02
2018-04-23T01:46:57.152Z,99114.69
2018-04-23T01:49:25.868Z,99113.94
2018-04-23T01:51:54.546Z,99111.38
2018-04-23T01:54:23.290Z,99115.80
2018-04-23T01:56:52.454Z,99119.89
2018-04-23T01:59:21.525Z,99122.56
2018-04-23T02:01:50.320Z,99127.66
2018-04-23T02:04:18.865Z,99131.83
2018-04-23T02:06:47.765Z,99134.84
2018-04-23T02:09:16.564Z,99135.92
2018-04-23T02:11:45.068Z,99137.42
2018-04-23T02:14:13.873Z,99137.84
2018-04-23T02:16:42.874Z,99133.33
2018-04-23T02:19:11.769Z,99150.89
2018-04-23T02:24:52.437Z,99150.22
2018-04-23T02:27:21.128Z,99154.65
2018-04-23T02:29:49.967Z,99153.23
2018-04-23T02:32:18.515Z,99159.91
2018-04-23T02:34:47.620Z,99156.06
2018-04-23T02:37:16.606Z,99160.41
2018-04-23T02:39:45.402Z,99164.91
2018-04-23T02:42:14.231Z,99171.34
2018-04-23T02:44:43.172Z,99177.34
2018-04-23T02:47:11.878Z,99166.66
2018-04-23T02:49:40.850Z,99175.09
2018-04-23T02:52:09.714Z,99172.84
2018-04-23T02:54:38.226Z,99174.03
2018-04-23T02:57:07.631Z,99173.95
2018-04-23T02:59:36.521Z,99176.88
2018-04-23T03:02:05.213Z,99177.29
2018-04-23T03:04:34.067Z,99176.29
2018-04-23T03:07:03.196Z,99173.28
2018-04-23T03:09:31.717Z,99177.37
2018-04-23T03:12:00.351Z,99178.20
2018-04-23T03:14:29.201Z,99174.62
2018-04-23T03:16:57.707Z,99175.20
2018-04-23T03:19:26.490Z,99172.86
2018-04-23T03:21:55.547Z,99185.05
2018-04-23T03:24:24.296Z,99182.95
2018-04-23T03:26:53.205Z,99179.95
2018-04-23T03:29:21.785Z,99179.53
2018-04-23T03:31:50.494Z,99188.16
2018-04-23T03:34:19.260Z,99184.95
2018-04-23T03:36:48.028Z,99185.30
2018-04-23T03:39:16.856Z,99174.69
2018-04-23T03:41:45.520Z,99184.16
2018-04-23T03:44:14.233Z,99187.41
2018-04-23T03:46:43.041Z,99185.16
2018-04-23T03:49:12.080Z,99183.91
2018-04-23T03:51:40.659Z,99186.98
2018-04-23T03:54:09.494Z,99189.73
2018-04-23T03:56:38.319Z,99185.23
2018-04-23T03:59:08.065Z,99187.12
2018-04-23T04:01:36.912Z,99191.55
2018-04-23T04:04:05.894Z,99195.00
2018-04-23T04:06:34.804Z,99185.57
2018-04-23T04:09:04.164Z,99183.81
2018-04-23T04:11:33.062Z,99184.41
2018-04-23T04:17:02.889Z,99179.89
2018-04-23T04:19:31.968Z,99182.20
2018-04-23T04:22:00.674Z,99180.39
2018-04-23T04:24:29.329Z,99176.02
2018-04-23T04:26:57.931Z,99167.67
2018-04-23T04:29:32.257Z,99171.59
2018-04-23T04:32:00.990Z,99175.19
2018-04-23T04:34:29.819Z,99172.09
2018-04-23T04:36:58.419Z,99178.27
2018-04-23T04:39:27.215Z,99175.19
2018-04-23T04:41:55.971Z,99172.27
2018-04-23T04:44:24.747Z,99164.33
2018-04-23T04:46:53.589Z,99165.17
2018-04-23T04:49:22.544Z,99167.34
2018-04-23T04:51:51.374Z,99162.41
2018-04-23T04:54:20.269Z,99162.83
2018-04-23T04:56:49.193Z,99165.09
2018-04-23T04:59:18.546Z,99173.59
2018-04-23T05:01:47.174Z,99166.00
2018-04-23T05:04:15.636Z,99163.33
2018-04-23T05:06:44.310Z,99159.33
2018-04-23T05:09:13.270Z,99162.83
2018-04-23T05:11:41.853Z,99157.08
2018-04-23T05:14:10.596Z,99164.25
2018-04-23T05:16:39.352Z,99152.23
2018-04-23T05:19:07.971Z,99142.47
2018-04-23T05:21:36.722Z,99154.98
2018-04-23T05:24:05.672Z,99151.90
2018-04-23T05:26:34.532Z,99150.17
2018-04-23T05:29:03.106Z,99149.34
2018-04-23T05:31:31.695Z,99139.50
2018-04-23T05:34:00.468Z,99133.20
2018-04-23T05:36:29.066Z,99132.70
2018-04-23T05:38:57.938Z,99135.98
2018-04-23T05:41:26.587Z,99131.48
2018-04-23T05:43:55.421Z,99135.08
2018-04-23T05:46:24.725Z,99123.86
2018-04-23T05:48:53.490Z,99120.27
2018-04-23T05:51:22.686Z,99115.35
2018-04-23T05:53:51.785Z,99107.03
2018-04-23T05:56:20.610Z,99103.95
2018-04-23T05:58:49.324Z,99100.36
2018-04-23T06:01:18.015Z,99100.36
2018-04-23T06:03:46.775Z,99102.70
2018-04-23T06:06:15.822Z,99091.94
2018-04-23T06:08:44.579Z,99091.44
2018-04-23T06:11:13.044Z,99089.27
2018-04-23T06:13:41.936Z,99092.77
2018-04-23T06:16:10.617Z,99096.66
2018-04-23T06:18:39.348Z,99081.97
2018-04-23T06:21:08.637Z,99087.23
2018-04-23T06:23:37.696Z,99071.21
2018-04-23T06:26:07.273Z,99079.14
2018-04-23T06:28:36.011Z,99071.13
2018-04-23T06:35:43.828Z,99049.18
2018-04-23T06:38:13.969Z,99060.28
2018-04-23T06:40:42.705Z,99050.02
2018-04-23T06:43:11.334Z,99045.55
2018-04-23T06:45:40.745Z,99040.62
2018-04-23T06:48:09.122Z,99038.78
2018-04-23T06:50:38.165Z,99035.69
2018-04-23T06:53:07.062Z,99017.92
2018-04-23T06:55:36.528Z,99026.27
2018-04-23T06:58:05.510Z,99021.51
2018-04-23T07:00:34.251Z,99007.66
2018-04-23T07:03:04.559Z,99016.58
2018-04-23T07:05:33.616Z,99006.73
2018-04-23T07:08:02.270Z,98994.72
2018-04-23T07:10:30.900Z,98995.55
2018-04-23T07:12:59.939Z,98995.55
2018-04-23T07:15:29.011Z,98996.97
2018-04-23T07:17:57.681Z,98981.37
2018-04-23T07:20:26.733Z,98987.13
2018-04-23T07:22:55.443Z,98978.61
2018-04-23T07:25:24.055Z,98977.28
2018-04-23T07:27:52.977Z,98977.61
2018-04-23T07:30:21.955Z,98973.19
2018-04-23T07:32:50.744Z,98971.32
2018-04-23T07:35:19.387Z,98960.25
2018-04-23T07:37:48.190Z,98960.97
2018-04-23T07:40:16.899Z,98960.97
2018-04-23T07:42:45.864Z,98959.55
2018-04-23T07:45:14.667Z,98954.13
2018-04-23T07:47:43.410Z,98943.86
2018-04-23T07:50:12.013Z,98949.20
2018-04-23T07:52:40.885Z,98941.19
2018-04-23T07:55:09.530Z,98939.35
2018-04-23T07:57:38.128Z,98939.35
2018-04-23T08:00:07.311Z,98925.08
2018-04-23T08:02:35.777Z,98929.50
2018-04-23T08:05:04.573Z,98915.23
2018-04-23T08:07:33.413Z,98917.07
2018-04-23T08:10:01.848Z,98917.41
2018-04-23T08:12:30.724Z,98918.66
2018-04-23T08:14:59.459Z,98903.87
2018-04-23T08:17:28.341Z,98900.38
2018-04-23T08:19:57.211Z,98893.61
2018-04-23T08:22:25.891Z,98886.85
2018-04-23T08:24:54.835Z,98886.73
2018-04-23T08:27:23.482Z,98877.30
2018-04-23T08:29:52.170Z,98879.05
2018-04-23T08:32:20.860Z,98867.36
2018-04-23T08:34:49.649Z,98859.27
2018-04-23T08:37:18.374Z,98848.58
2018-04-23T08:39:47.491Z,98849.41
2018-04-23T08:42:16.350Z,98844.48
2018-04-23T08:44:45.066Z,98843.98
2018-04-23T08:47:13.901Z,98839.89
2018-04-23T08:49:42.816Z,98842.98
2018-04-23T08:52:11.567Z,98832.72
2018-04-23T08:54:41.134Z,98837.97
2018-04-23T08:57:10.062Z,98821.83
2018-04-23T08:59:38.763Z,98819.57
2018-04-23T09:02:07.414Z,98815.48
2018-04-23T09:04:37.780Z,98813.22
2018-04-23T09:07:06.962Z,98808.30
2018-04-23T09:09:35.901Z,98809.55
2018-04-23T09:12:04.663Z,98807.20
2018-04-23T09:14:33.741Z,98801.36
2018-04-23T09:17:02.599Z,98801.19
2018-04-23T09:19:31.102Z,98800.68
2018-04-23T09:22:01.011Z,98798.42
2018-04-23T09:24:30.072Z,98791.25
2018-04-23T09:26:59.055Z,98786.20
2018-04-23T09:29:28.131Z,98791.95
2018-04-23T09:31:56.724Z,98792.79
2018-04-23T09:34:25.859Z,98785.11
2018-04-23T09:36:54.709Z,98784.60
2018-04-23T09:39:23.539Z,98773.41
2018-04-23T09:41:52.248Z,98778.67
2018-04-23T09:44:20.900Z,98774.57
2018-04-23T09:46:49.565Z,98774.06
2018-04-23T09:49:18.629Z,98777.57
2018-04-23T09:51:47.645Z,98768.55
2018-04-23T09:54:16.719Z,98774.61
2018-04-23T09:56:46.003Z,98767.84
2018-04-23T09:59:14.591Z,98762.41
2018-04-23T10:01:49.145Z,98760.63
2018-04-23T10:04:21.725Z,98755.38
2018-04-23T10:06:50.834Z,98754.46
2018-04-23T10:09:19.517Z,98753.72
2018-04-23T10:11:48.680Z,98756.55
2018-04-23T10:14:17.774Z,98752.77
2018-04-23T10:16:46.735Z,98753.07
2018-04-23T10:19:15.869Z,98752.12
2018-04-23T10:21:45.034Z,98751.55
2018-04-23T10:24:13.852Z,98741.19
2018-04-23T10:26:42.973Z,98741.13
2018-04-23T10:29:11.598Z,98741.48
2018-04-23T10:31:40.614Z,98737.11
2018-04-23T10:34:09.466Z,98734.11
2018-04-23T10:36:38.483Z,98724.11
2018-04-23T10:39:07.984Z,98731.20
2018-04-23T10:41:37.023Z,98726.00
2018-04-23T10:44:05.596Z,98726.43
2018-04-23T10:46:34.471Z,98722.27
2018-04-23T10:49:04.796Z,98717.61
2018-04-23T10:51:33.427Z,98717.38
2018-04-23T10:54:02.394Z,98721.27
2018-04-23T10:56:31.406Z,98720.37
2018-04-23T10:59:00.868Z,98711.86
2018-04-23T11:01:30.091Z,98715.09
2018-04-23T11:03:59.147Z,98707.22
2018-04-23T11:06:27.929Z,98709.69
2018-04-23T11:08:56.775Z,98706.41
2018-04-23T11:11:25.800Z,98705.82
2018-04-23T11:13:54.457Z,98708.82
2018-04-23T11:16:23.570Z,98705.87
2018-04-23T11:18:52.282Z,98703.50
2018-04-23T11:21:21.548Z,98707.83
2018-04-23T11:23:50.507Z,98705.48
2018-04-23T11:26:19.020Z,98700.14
2018-04-23T11:28:58.633Z,98702.72
2018-04-23T11:31:27.476Z,98709.23
2018-04-23T11:33:56.093Z,98702.87
2018-04-23T11:36:24.646Z,98701.86
2018-04-23T11:38:53.701Z,98701.32
2018-04-23T11:41:22.642Z,98703.48
2018-04-23T11:43:51.267Z,98701.55
2018-04-23T11:46:20.192Z,98702.89
2018-04-23T11:48:49.181Z,98705.56
2018-04-23T11:51:17.925Z,98701.88
2018-04-23T11:53:46.488Z,98701.79
2018-04-23T11:56:15.191Z,98699.53
2018-04-23T11:58:44.270Z,98698.61
2018-04-23T12:01:13.445Z,98710.13
2018-04-23T12:03:42.295Z,98698.43
2018-04-23T12:06:11.022Z,98701.94
2018-04-23T12:08:39.666Z,98702.34
2018-04-23T12:11:08.543Z,98700.47
2018-04-23T12:13:37.637Z,98702.14
2018-04-23T12:16:11.049Z,98705.13
2018-04-23T12:18:39.986Z,98700.20
2018-04-23T12:21:08.678Z,98709.47
2018-04-23T12:23:37.505Z,98709.80
2018-04-23T12:26:06.927Z,98714.22
2018-04-23T12:28:36.483Z,98713.21
2018-04-23T12:31:05.184Z,98706.94
2018-04-23T12:33:34.022Z,98712.70
2018-04-23T12:36:02.740Z,98716.21
2018-04-23T12:38:31.484Z,98717.55
2018-04-23T12:41:00.309Z,98721.56
2018-04-23T12:43:29.053Z,98728.16
2018-04-23T12:45:57.910Z,98728.53
2018-04-23T12:48:27.454Z,98727.20
2018-04-23T12:50:56.530Z,98726.69
2018-04-23T12:53:25.325Z,98733.28
2018-04-23T12:55:54.185Z,98738.63
2018-04-23T12:58:23.037Z,98737.30
2018-04-23T13:00:51.725Z,98741.63
2018-04-23T13:03:20.702Z,98748.32
2018-04-23T13:05:49.624Z,98746.48
2018-04-23T13:08:18.134Z,98751.83
2018-04-23T13:10:46.901Z,98753.58
2018-04-23T13:13:15.619Z,98752.16
2018-04-23T13:15:44.624Z,98757.17
2018-04-23T13:18:13.461Z,98759.94
2018-04-23T13:20:42.361Z,98760.86
2018-04-23T13:23:11.469Z,98768.38
2018-04-23T13:25:40.578Z,98767.88
2018-04-23T13:28:08.987Z,98762.94
2018-04-23T13:30:37.384Z,98774.55
2018-04-23T13:33:06.251Z,98786.50
2018-04-23T13:35:35.024Z,98789.17
2018-04-23T13:38:03.653Z,98785.58
2018-04-23T13:40:32.813Z,98793.18
2018-04-23T13:43:01.460Z,98795.44
2018-04-23T13:45:39.784Z,98799.87
2018-04-23T13:48:09.068Z,98803.87
2018-04-23T13:50:38.161Z,98803.38
2018-04-23T13:53:07.266Z,98806.97
2018-04-23T13:55:36.250Z,98803.38
2018-04-23T13:58:05.255Z,98811.72
2018-04-23T14:00:34.036Z,98813.98
2018-04-23T14:03:02.708Z,98817.07
2018-04-23T14:05:31.085Z,98827.27
2018-04-23T14:07:59.521Z,98831.27
2018-04-23T14:10:27.896Z,98838.79
2018-04-23T14:12:56.347Z,98842.71
2018-04-23T14:15:25.295Z,98850.73
2018-04-23T14:20:47.896Z,98852.07
2018-04-23T14:23:16.643Z,98864.11
2018-04-23T14:25:45.319Z,98864.61
2018-04-23T14:28:14.196Z,98862.35
2018-04-23T14:30:42.866Z,98865.03
2018-04-23T14:33:11.523Z,98866.36
2018-04-23T14:35:40.593Z,98873.05
2018-04-23T14:38:09.247Z,98863.27
2018-04-23T14:40:37.957Z,98870.80
2018-04-23T14:43:06.748Z,98878.70
2018-04-23T14:45:35.335Z,98877.36
2018-04-23T14:48:04.078Z,98882.70
2018-04-23T14:50:33.143Z,98882.29
2018-04-23T14:53:02.143Z,98880.86
2018-04-23T14:55:30.977Z,98886.63
2018-04-23T14:57:59.448Z,98888.38
2018-04-23T15:00:28.277Z,98890.14
2018-04-23T15:02:57.224Z,98890.05
2018-04-23T15:05:25.945Z,98898.58
2018-04-23T15:07:54.917Z,98903.50
2018-04-23T15:10:23.731Z,98896.31
2018-04-23T15:12:52.377Z,98890.64
2018-04-23T15:15:21.364Z,98895.66
2018-04-23T15:17:50.044Z,98894.86
2018-04-23T15:20:18.610Z,98898.88
2018-04-23T15:22:47.333Z,98898.88
2018-04-23T15:25:16.257Z,98902.47
2018-04-23T15:27:44.828Z,98911.29
2018-04-23T15:30:13.595Z,98913.58
2018-04-23T15:32:42.181Z,98914.92
2018-04-23T15:35:10.950Z,98917.17
2018-04-23T15:37:39.467Z,98922.41
2018-04-23T15:40:08.588Z,98918.81
2018-04-23T15:42:37.320Z,98922.31
2018-04-23T15:45:06.216Z,98927.75
2018-04-23T15:47:34.904Z,98924.16
2018-04-23T15:50:03.568Z,98929.00
2018-04-23T15:52:32.278Z,98933.10
2018-04-23T15:55:01.270Z,98940.70
2018-04-23T15:57:29.849Z,98940.20
2018-04-23T15:59:58.645Z,98941.66
2018-04-23T16:02:27.244Z,98942.58
2018-04-23T16:04:55.668Z,98936.40
2018-04-23T16:07:24.049Z,98942.16
2018-04-23T16:09:53.201Z,98941.75
2018-04-23T16:12:21.806Z,98943.50
2018-04-23T16:14:50.377Z,98943.38
2018-04-23T16:17:19.180Z,98945.97
2018-04-23T16:19:47.626Z,98947.30
2018-04-23T16:22:15.931Z,98945.88
2018-04-23T16:24:44.288Z,98942.70
2018-04-23T16:27:12.623Z,98945.80
2018-04-23T16:29:41.309Z,98946.63
2018-04-23T16:32:11.305Z,98945.70
2018-04-23T16:34:39.942Z,98948.38
2018-04-23T16:37:08.676Z,98949.63
2018-04-23T16:39:37.733Z,98952.30
2018-04-23T16:42:06.357Z,98947.37
2018-04-23T16:44:39.415Z,98944.70
2018-04-23T16:47:03.975Z,98944.70
2018-04-23T16:49:32.569Z,98942.52
2018-04-23T16:52:01.147Z,98942.11
2018-04-23T16:54:29.725Z,98939.61
2018-04-23T16:56:58.579Z,98942.37
2018-04-23T16:59:27.600Z,98943.70
2018-04-23T17:01:57.722Z,98941.84
2018-04-23T17:04:26.640Z,98940.59
2018-04-23T17:06:55.183Z,98944.01
2018-04-23T17:09:24.061Z,98945.76
2018-04-23T17:11:53.432Z,98944.84
2018-04-23T17:14:22.613Z,98946.05
2018-04-23T17:16:51.211Z,98948.64
2018-04-23T17:19:20.036Z,98944.01
2018-04-23T17:21:48.728Z,98938.83
2018-04-23T17:24:17.531Z,98936.58
2018-04-23T17:26:46.589Z,98935.56
2018-04-23T17:29:15.248Z,98941.33
2018-04-23T17:31:43.845Z,98939.91
2018-04-23T17:34:12.921Z,98939.49
2018-04-23T17:36:41.905Z,98938.66
2018-04-23T17:39:10.619Z,98935.56
2018-04-23T17:41:39.719Z,98927.55
2018-04-23T17:44:08.646Z,98923.70
2018-04-23T17:46:37.430Z,98924.95
2018-04-23T17:49:07.850Z,98926.71
2018-04-23T17:51:36.649Z,98920.95
2018-04-23T17:54:05.542Z,98919.70
2018-04-23T17:56:34.404Z,98921.87
2018-04-23T18:01:24.791Z,98918.27
2018-04-23T18:03:53.819Z,98923.62
2018-04-23T18:06:22.785Z,98922.70
2018-04-23T18:08:51.376Z,98922.70
2018-04-23T18:11:20.295Z,98921.36
2018-04-23T18:13:48.961Z,98925.28
2018-04-23T18:16:17.716Z,98921.78
2018-04-23T18:18:46.824Z,98925.38
2018-04-23T18:21:15.479Z,98922.70
2018-04-23T18:23:44.319Z,98924.04
2018-04-23T18:26:13.451Z,98914.34
2018-04-23T18:28:42.569Z,98915.69
2018-04-23T18:31:10.979Z,98905.41
2018-04-23T18:33:39.883Z,98910.34
2018-04-23T18:36:08.966Z,98908.67
2018-04-23T18:38:37.699Z,98904.66
2018-04-23T18:41:06.386Z,98899.41
2018-04-23T18:43:35.215Z,98898.06
2018-04-23T18:46:04.024Z,98902.08
2018-04-23T18:48:32.675Z,98900.32
2018-04-23T18:51:02.536Z,98899.41
2018-04-23T18:53:31.211Z,98895.06
2018-04-23T18:56:00.057Z,98886.53
2018-04-23T18:58:29.136Z,98887.78
2018-04-23T19:00:58.180Z,98875.00
2018-04-23T19:03:27.265Z,98878.52
2018-04-23T19:05:56.056Z,98874.00
2018-04-23T19:08:24.839Z,98870.08
2018-04-23T19:10:53.692Z,98870.48
2018-04-23T19:13:22.824Z,98871.41
2018-04-23T19:15:51.407Z,98866.16
2018-04-23T19:18:20.032Z,98861.84
2018-04-23T19:20:48.966Z,98857.42
2018-04-23T19:23:17.973Z,98859.94
2018-04-23T19:25:46.718Z,98858.28
2018-04-23T19:28:15.703Z,98854.77
2018-04-23T19:30:44.588Z,98847.67
2018-04-23T19:33:13.097Z,98855.19
2018-04-23T19:35:41.898Z,98850.67
2018-04-23T19:38:10.668Z,98840.90
2018-04-23T19:40:39.409Z,98839.66
2018-04-23T19:43:08.235Z,98833.89
2018-04-23T19:45:37.111Z,98833.89
2018-04-23T19:48:05.847Z,98836.47
2018-04-23T19:50:34.920Z,98834.30
2018-04-23T19:53:04.271Z,98827.20
2018-04-23T19:55:33.080Z,98824.53
2018-04-23T19:58:01.627Z,98819.18
2018-04-23T20:00:30.577Z,98817.02
2018-04-23T20:02:59.219Z,98813.18
2018-04-23T20:05:28.139Z,98818.11
2018-04-23T20:07:56.645Z,98812.37
2018-04-23T20:10:25.427Z,98814.10
2018-04-23T20:12:54.254Z,98818.23
2018-04-23T20:15:22.959Z,98809.38
2018-04-23T20:17:51.731Z,98809.29
2018-04-23T20:20:20.391Z,98808.97
2018-04-23T20:22:49.273Z,98803.80
2018-04-23T20:25:18.160Z,98802.05
2018-04-23T20:27:46.839Z,98805.55
2018-04-23T20:30:15.304Z,98797.53
2018-04-23T20:32:44.273Z,98799.37
2018-04-23T20:35:13.172Z,98803.88
2018-04-23T20:37:41.909Z,98802.05
2018-04-23T20:40:10.836Z,98790.94
2018-04-23T20:42:39.649Z,98789.69
2018-04-23T20:45:08.254Z,98792.36
2018-04-23T20:47:37.152Z,98797.29
2018-04-23T20:50:06.099Z,98790.70
2018-04-23T20:52:34.851Z,98798.72
2018-04-23T20:55:03.850Z,98799.22
2018-04-23T20:57:33.058Z,98784.61
2018-04-23T21:00:02.393Z,98783.77
2018-04-23T21:02:30.979Z,98788.73
2018-04-23T21:04:59.729Z,98784.91
2018-04-23T21:07:33.963Z,98787.16
2018-04-23T21:10:02.863Z,98785.83
2018-04-23T21:12:31.763Z,98779.73
2018-04-23T21:15:00.356Z,98786.42
2018-04-23T21:17:29.286Z,98777.57
2018-04-23T21:19:57.798Z,98779.73
2018-04-23T21:22:26.355Z,98781.08
2018-04-23T21:24:55.377Z,98779.41
2018-04-23T22:09:16.708Z,98770.23
2018-04-23T22:11:45.297Z,98777.51
2018-04-23T22:14:14.259Z,98771.66
2018-04-23T22:16:43.488Z,98773.50
2018-04-23T22:19:12.622Z,98769.41
2018-04-23T22:21:41.461Z,98769.49
2018-04-23T22:24:10.443Z,98770.95
2018-04-23T22:26:39.344Z,98778.97
2018-04-23T22:29:08.182Z,98770.12
2018-04-23T22:31:36.886Z,98776.88
2018-04-23T22:34:05.628Z,98773.80
2018-04-23T22:36:34.232Z,98775.64
2018-04-23T22:39:02.924Z,98779.64
2018-04-23T22:41:31.676Z,98786.50
2018-04-23T22:44:00.362Z,98788.26
2018-04-23T22:46:29.412Z,98791.52
2018-04-23T22:48:57.983Z,98783.59
2018-04-23T22:51:26.761Z,98784.19
2018-04-23T22:53:55.664Z,98784.60
2018-04-23T22:56:24.397Z,98783.95
2018-04-23T22:58:53.204Z,98783.11
2018-04-23T23:01:22.250Z,98787.95
2018-04-23T23:03:50.611Z,98790.16
2018-04-23T23:06:19.235Z,98794.31
2018-04-23T23:08:47.928Z,98787.22
2018-04-23T23:11:17.278Z,98797.48
2018-04-23T23:13:46.261Z,98795.64
2018-04-23T23:16:14.917Z,98792.14
2018-04-23T23:18:43.830Z,98794.16
2018-04-23T23:21:12.251Z,98799.50
2018-04-23T23:23:40.961Z,98799.50
2018-04-23T23:26:10.250Z,98800.09
2018-04-23T23:28:39.021Z,98811.28
2018-04-23T23:31:07.644Z,98804.52
2018-04-23T23:33:36.494Z,98806.89
2018-04-23T23:36:04.952Z,98810.58
2018-04-23T23:38:33.877Z,98812.41
2018-04-23T23:57:34.445Z,98821.79
